createdAt,value
2022-08-25T00:00:18.841Z,3.45
2022-08-25T00:02:55.613Z,3.15
2022-08-25T00:05:29.323Z,2.55
2022-08-25T00:07:58.841Z,2.85
2022-08-25T00:10:27.284Z,3.85
2022-08-25T00:12:55.195Z,3.17
2022-08-25T00:15:23.610Z,3.38
2022-08-25T00:17:51.585Z,4.50
2022-08-25T00:20:19.929Z,4.97
2022-08-25T00:22:48.966Z,2.58
2022-08-25T00:25:18.872Z,2.63
2022-08-25T00:27:47.360Z,3.47
2022-08-25T00:30:16.798Z,4.18
2022-08-25T00:32:50.521Z,5.75
2022-08-25T00:35:23.488Z,4.25
2022-08-25T00:37:51.325Z,4.35
2022-08-25T00:40:20.543Z,3.70
2022-08-25T00:42:48.292Z,2.47
2022-08-25T00:45:16.096Z,4.30
2022-08-25T00:47:43.815Z,4.22
2022-08-25T00:50:12.863Z,3.30
2022-08-25T00:52:45.105Z,2.33
2022-08-25T00:55:16.911Z,3.65
2022-08-25T00:57:49.017Z,2.78
2022-08-25T01:00:20.782Z,3.75
2022-08-25T01:02:48.989Z,3.38
2022-08-25T01:05:17.954Z,3.78
2022-08-25T01:07:46.128Z,4.85
2022-08-25T01:10:14.626Z,2.45
2022-08-25T01:12:42.497Z,2.30
2022-08-25T01:15:14.219Z,3.90
2022-08-25T01:17:48.848Z,4.75
2022-08-25T01:20:19.598Z,4.28
2022-08-25T01:22:54.997Z,3.53
2022-08-25T01:25:33.279Z,4.15
2022-08-25T01:28:01.327Z,3.90
2022-08-25T01:30:29.071Z,3.40
2022-08-25T01:32:56.767Z,2.92
2022-08-25T01:35:24.921Z,6.22
2022-08-25T01:37:53.939Z,3.40
2022-08-25T01:40:23.056Z,5.05
2022-08-25T01:42:59.572Z,2.45
2022-08-25T01:45:28.907Z,3.85
2022-08-25T01:47:56.810Z,5.15
2022-08-25T01:50:24.586Z,3.90
2022-08-25T01:52:59.613Z,3.25
2022-08-25T01:55:27.879Z,4.32
2022-08-25T01:57:55.866Z,4.07
2022-08-25T02:00:24.402Z,3.08
2022-08-25T02:02:55.451Z,4.00
2022-08-25T02:05:23.934Z,5.40
2022-08-25T02:07:51.815Z,4.28
2022-08-25T02:10:22.390Z,4.93
2022-08-25T02:12:51.061Z,2.97
2022-08-25T02:15:22.333Z,3.58
2022-08-25T02:17:50.061Z,5.13
2022-08-25T02:20:18.996Z,4.75
2022-08-25T02:22:52.995Z,4.65
2022-08-25T02:25:25.902Z,5.93
2022-08-25T02:27:53.586Z,4.32
2022-08-25T02:30:22.170Z,3.28
2022-08-25T02:32:49.902Z,4.35
2022-08-25T02:35:18.051Z,5.70
2022-08-25T02:37:45.718Z,5.10
2022-08-25T02:40:13.972Z,4.38
2022-08-25T02:42:43.459Z,3.53
2022-08-25T02:45:11.543Z,5.25
2022-08-25T02:47:39.374Z,5.78
2022-08-25T02:50:08.513Z,4.38
2022-08-25T02:52:36.318Z,8.05
2022-08-25T02:55:07.028Z,5.20
2022-08-25T02:57:34.779Z,3.28
2022-08-25T03:00:05.920Z,4.00
2022-08-25T03:02:33.723Z,5.35
2022-08-25T03:05:01.509Z,3.70
2022-08-25T03:07:29.365Z,4.88
2022-08-25T03:10:07.689Z,4.03
2022-08-25T03:12:35.342Z,4.97
2022-08-25T03:15:12.908Z,4.15
2022-08-25T03:17:41.020Z,4.80
2022-08-25T03:20:13.948Z,3.95
2022-08-25T03:22:42.581Z,6.32
2022-08-25T03:25:28.013Z,6.32
2022-08-25T03:27:55.874Z,7.20
2022-08-25T03:30:25.822Z,3.83
2022-08-25T03:32:54.066Z,6.07
2022-08-25T03:35:21.938Z,3.22
2022-08-25T03:37:51.139Z,5.25
2022-08-25T03:40:18.917Z,4.88
2022-08-25T03:42:46.952Z,4.65
2022-08-25T03:45:17.757Z,3.53
2022-08-25T03:47:49.111Z,4.75
2022-08-25T03:50:19.080Z,7.43
2022-08-25T03:52:53.717Z,5.13
2022-08-25T03:55:23.329Z,4.30
2022-08-25T03:57:51.626Z,5.40
2022-08-25T04:00:19.843Z,6.20
2022-08-25T04:02:48.971Z,4.82
2022-08-25T04:05:16.734Z,4.47
2022-08-25T04:07:44.402Z,4.93
2022-08-25T04:10:12.876Z,3.83
2022-08-25T04:12:41.758Z,8.90
2022-08-25T04:15:10.638Z,7.82
2022-08-25T04:17:40.732Z,5.13
2022-08-25T04:20:14.161Z,4.47
2022-08-25T04:22:44.959Z,8.02
2022-08-25T04:25:13.432Z,6.18
2022-08-25T04:27:41.163Z,4.72
2022-08-25T04:30:09.943Z,10.52
2022-08-25T04:32:37.867Z,6.05
2022-08-25T04:35:06.355Z,7.15
2022-08-25T04:37:35.746Z,5.38
2022-08-25T04:40:04.532Z,6.50
2022-08-25T04:42:32.265Z,7.15
2022-08-25T04:45:01.813Z,4.72
2022-08-25T04:47:29.837Z,4.28
2022-08-25T04:49:57.564Z,4.68
2022-08-25T04:52:25.259Z,4.28
2022-08-25T04:54:54.438Z,6.03
2022-08-25T04:57:22.181Z,5.35
2022-08-25T04:59:50.086Z,7.28
2022-08-25T05:02:17.740Z,5.75
2022-08-25T05:04:45.453Z,5.30
2022-08-25T05:07:13.154Z,7.63
2022-08-25T05:09:41.087Z,5.45
2022-08-25T05:12:10.622Z,5.35
2022-08-25T05:14:40.452Z,5.85
2022-08-25T05:17:08.818Z,5.78
2022-08-25T05:19:37.159Z,5.50
2022-08-25T05:22:04.884Z,4.70
2022-08-25T05:24:32.597Z,5.10
2022-08-25T05:27:00.263Z,5.72
2022-08-25T05:29:29.277Z,4.68
2022-08-25T05:31:57.179Z,7.75
2022-08-25T05:34:25.708Z,7.22
2022-08-25T05:36:53.466Z,7.38
2022-08-25T05:39:21.145Z,4.95
2022-08-25T05:41:48.850Z,5.43
2022-08-25T05:44:20.956Z,7.50
2022-08-25T05:46:51.159Z,7.18
2022-08-25T05:49:18.987Z,6.78
2022-08-25T05:51:46.659Z,6.80
2022-08-25T05:54:14.374Z,6.65
2022-08-25T05:56:42.073Z,5.75
2022-08-25T05:59:10.457Z,6.90
2022-08-25T06:01:55.872Z,7.47
2022-08-25T06:04:24.912Z,4.88
2022-08-25T06:06:53.891Z,4.70
2022-08-25T06:09:22.293Z,6.57
2022-08-25T06:11:54.453Z,6.35
2022-08-25T06:14:23.177Z,7.50
2022-08-25T06:16:51.593Z,4.82
2022-08-25T06:19:19.695Z,5.38
2022-08-25T06:21:49.148Z,6.53
2022-08-25T06:24:17.098Z,5.40
2022-08-25T06:26:45.110Z,7.00
2022-08-25T06:29:13.990Z,6.35
2022-08-25T06:31:42.509Z,5.15
2022-08-25T06:34:10.961Z,4.20
2022-08-25T06:36:38.642Z,8.60
2022-08-25T06:39:10.529Z,4.25
2022-08-25T06:41:39.665Z,3.97
2022-08-25T06:44:07.368Z,4.82
2022-08-25T06:46:36.935Z,5.40
2022-08-25T06:49:06.075Z,4.13
2022-08-25T06:51:36.035Z,5.07
2022-08-25T06:54:04.961Z,5.65
2022-08-25T06:56:34.605Z,5.30
2022-08-25T06:59:02.807Z,5.95
2022-08-25T07:01:32.153Z,4.90
2022-08-25T07:04:02.615Z,4.50
2022-08-25T07:06:32.366Z,5.72
2022-08-25T07:09:00.935Z,7.05
2022-08-25T07:11:29.217Z,4.72
2022-08-25T07:13:58.244Z,6.45
2022-08-25T07:16:29.009Z,6.90
2022-08-25T07:18:59.086Z,4.15
2022-08-25T07:21:33.188Z,6.45
2022-08-25T07:24:03.380Z,4.50
2022-08-25T07:26:37.681Z,5.55
2022-08-25T07:29:10.970Z,5.85
2022-08-25T07:31:39.001Z,4.03
2022-08-25T07:34:25.580Z,5.30
2022-08-25T07:36:54.509Z,4.57
2022-08-25T07:39:23.433Z,4.70
2022-08-25T07:41:52.368Z,4.85
2022-08-25T07:44:23.217Z,7.57
2022-08-25T07:46:52.507Z,5.55
2022-08-25T07:49:23.151Z,6.40
2022-08-25T07:52:04.463Z,5.80
2022-08-25T07:54:34.315Z,6.10
2022-08-25T07:57:03.109Z,5.20
2022-08-25T07:59:39.703Z,5.20
2022-08-25T08:02:16.137Z,4.63
2022-08-25T08:04:48.415Z,5.78
2022-08-25T08:07:18.140Z,8.35
2022-08-25T08:09:45.879Z,5.72
2022-08-25T08:12:13.543Z,5.47
2022-08-25T08:14:45.113Z,8.38
2022-08-25T08:17:14.067Z,4.88
2022-08-25T08:19:45.120Z,5.35
2022-08-25T08:22:15.997Z,9.15
2022-08-25T08:24:54.806Z,4.35
2022-08-25T08:27:24.370Z,4.25
2022-08-25T08:29:53.735Z,4.70
2022-08-25T08:32:25.176Z,6.97
2022-08-25T08:34:59.288Z,6.03
2022-08-25T08:37:28.077Z,5.72
2022-08-25T08:39:56.041Z,4.40
2022-08-25T08:42:43.012Z,4.47
2022-08-25T08:45:28.265Z,4.00
2022-08-25T08:48:22.459Z,5.68
2022-08-25T08:51:02.620Z,6.97
2022-08-25T08:53:46.233Z,5.25
2022-08-25T08:58:49.997Z,4.25
2022-08-25T09:01:27.617Z,7.25
2022-08-25T09:04:01.194Z,4.15
2022-08-25T09:06:38.702Z,9.55
2022-08-25T09:09:07.854Z,4.50
2022-08-25T09:11:50.707Z,6.53
2022-08-25T09:14:33.909Z,6.78
2022-08-25T09:17:07.970Z,5.55
2022-08-25T09:20:03.962Z,4.95
2022-08-25T09:22:47.519Z,6.57
2022-08-25T09:25:39.838Z,4.38
2022-08-25T09:28:21.093Z,4.63
2022-08-25T09:30:55.686Z,6.82
2022-08-25T09:33:26.774Z,5.28
2022-08-25T09:35:57.556Z,7.28
2022-08-25T09:38:26.194Z,3.92
2022-08-25T09:40:56.975Z,4.35
2022-08-25T09:43:33.124Z,5.00
2022-08-25T09:46:02.880Z,4.13
2022-08-25T09:48:39.775Z,4.78
2022-08-25T09:51:18.825Z,4.75
2022-08-25T09:53:53.166Z,4.50
2022-08-25T09:56:22.795Z,5.75
2022-08-25T09:58:51.303Z,4.20
2022-08-25T10:01:22.336Z,6.03
2022-08-25T10:04:00.783Z,6.05
2022-08-25T10:06:34.399Z,6.25
2022-08-25T10:09:06.456Z,6.03
2022-08-25T10:11:39.315Z,3.85
2022-08-25T10:14:18.793Z,5.20
2022-08-25T10:16:48.789Z,4.35
2022-08-25T10:19:26.825Z,5.68
2022-08-25T10:22:08.237Z,5.85
2022-08-25T10:24:41.011Z,8.13
2022-08-25T10:27:23.286Z,7.55
2022-08-25T10:30:08.044Z,8.07
2022-08-25T10:32:58.019Z,8.05
2022-08-25T10:35:32.266Z,3.70
2022-08-25T10:38:11.345Z,8.38
2022-08-25T10:40:45.701Z,5.20
2022-08-25T10:43:25.354Z,7.03
2022-08-25T10:46:05.106Z,3.88
2022-08-25T10:48:53.654Z,5.35
2022-08-25T10:51:52.742Z,8.23
2022-08-25T10:54:40.470Z,5.32
2022-08-25T10:57:19.323Z,4.25
2022-08-25T10:59:57.389Z,7.38
2022-08-25T11:02:48.955Z,4.72
2022-08-25T11:05:27.063Z,5.00
2022-08-25T11:08:05.522Z,3.25
2022-08-25T11:10:42.713Z,5.45
2022-08-25T11:13:18.021Z,5.15
2022-08-25T11:16:13.700Z,6.38
2022-08-25T11:18:51.447Z,3.72
2022-08-25T11:21:24.530Z,5.10
2022-08-25T11:23:59.505Z,4.18
2022-08-25T11:26:36.825Z,8.85
2022-08-25T11:29:11.523Z,5.07
2022-08-25T11:31:43.251Z,7.53
2022-08-25T11:34:14.459Z,2.53
2022-08-25T11:36:50.601Z,5.00
2022-08-25T11:39:34.507Z,3.95
2022-08-25T11:42:28.830Z,3.92
2022-08-25T11:45:08.116Z,4.80
2022-08-25T11:48:00.213Z,7.35
2022-08-25T11:50:32.724Z,6.00
2022-08-25T11:53:23.646Z,6.00
2022-08-25T11:56:02.353Z,3.78
2022-08-25T11:58:35.544Z,4.07
2022-08-25T12:01:06.021Z,4.95
2022-08-25T12:04:14.832Z,3.15
2022-08-25T12:07:19.583Z,3.20
2022-08-25T12:10:20.773Z,3.28
2022-08-25T12:13:22.299Z,5.07
2022-08-25T12:16:02.410Z,4.43
2022-08-25T12:18:45.639Z,8.75
2022-08-25T12:21:29.029Z,5.45
2022-08-25T12:24:17.842Z,3.80
2022-08-25T12:26:53.759Z,4.07
2022-08-25T12:29:31.915Z,3.47
2022-08-25T12:32:41.931Z,3.40
2022-08-25T12:35:29.835Z,5.07
2022-08-25T12:38:05.727Z,4.35
2022-08-25T12:40:40.137Z,7.97
2022-08-25T12:43:12.412Z,3.63
2022-08-25T12:45:47.186Z,6.68
2022-08-25T12:48:56.997Z,4.97
2022-08-25T12:51:27.346Z,3.75
2022-08-25T12:54:02.063Z,3.33
2022-08-25T12:56:39.143Z,3.00
2022-08-25T12:59:15.670Z,2.90
2022-08-25T13:02:07.813Z,4.57
2022-08-25T13:05:04.170Z,3.80
2022-08-25T13:07:47.572Z,3.63
2022-08-25T13:10:44.748Z,3.53
2022-08-25T13:13:23.690Z,3.30
2022-08-25T13:16:00.455Z,3.30
2022-08-25T13:18:32.497Z,4.05
2022-08-25T13:21:07.206Z,8.60
2022-08-25T13:23:37.554Z,4.15
2022-08-25T13:26:06.310Z,7.60
2022-08-25T13:28:36.745Z,2.10
2022-08-25T13:31:10.678Z,2.92
2022-08-25T13:33:39.711Z,5.93
2022-08-25T13:36:25.307Z,4.25
2022-08-25T13:38:53.122Z,4.40
2022-08-25T13:41:28.911Z,2.78
2022-08-25T13:44:01.791Z,3.95
2022-08-25T13:46:31.546Z,3.75
2022-08-25T13:49:07.191Z,4.15
2022-08-25T13:51:37.602Z,3.65
2022-08-25T13:54:08.426Z,3.63
2022-08-25T13:56:41.204Z,2.97
2022-08-25T13:59:23.057Z,5.05
2022-08-25T14:01:53.312Z,3.65
2022-08-25T14:04:26.897Z,2.88
2022-08-25T14:07:19.464Z,3.15
2022-08-25T14:09:51.630Z,5.15
2022-08-25T14:12:31.783Z,4.57
2022-08-25T14:15:02.215Z,3.05
2022-08-25T14:17:39.173Z,3.08
2022-08-25T14:20:18.057Z,4.15
2022-08-25T14:22:45.835Z,6.05
2022-08-25T14:25:13.716Z,4.25
2022-08-25T14:28:03.570Z,5.53
2022-08-25T14:30:34.557Z,3.17
2022-08-25T14:33:03.968Z,4.95
2022-08-25T14:35:33.945Z,5.15
2022-08-25T14:38:04.435Z,3.58
2022-08-25T14:40:34.453Z,2.63
2022-08-25T14:43:02.352Z,3.63
2022-08-25T14:45:31.566Z,3.85
2022-08-25T14:48:10.470Z,3.50
2022-08-25T14:50:41.221Z,5.57
2022-08-25T14:53:11.174Z,4.72
2022-08-25T14:55:39.808Z,5.72
2022-08-25T14:58:07.862Z,2.97
2022-08-25T15:00:38.201Z,4.82
2022-08-25T15:03:06.257Z,2.72
2022-08-25T15:05:34.145Z,3.28
2022-08-25T15:08:20.773Z,5.45
2022-08-25T15:10:48.590Z,3.85
2022-08-25T15:13:16.241Z,4.65
2022-08-25T15:15:52.336Z,2.78
2022-08-25T15:18:21.538Z,2.95
2022-08-25T15:20:49.843Z,5.32
2022-08-25T15:23:19.716Z,4.47
2022-08-25T15:25:52.799Z,3.33
2022-08-25T15:28:22.282Z,4.10
2022-08-25T15:30:50.294Z,3.28
2022-08-25T15:33:18.382Z,2.92
2022-08-25T15:35:46.557Z,4.22
2022-08-25T15:38:19.038Z,2.65
2022-08-25T15:40:46.745Z,3.97
2022-08-25T15:43:14.567Z,7.30
2022-08-25T15:45:46.289Z,3.25
2022-08-25T15:48:14.230Z,4.18
2022-08-25T15:50:42.546Z,5.72
2022-08-25T15:53:10.601Z,3.63
2022-08-25T15:55:41.289Z,3.60
2022-08-25T15:58:09.129Z,5.15
2022-08-25T16:00:37.931Z,3.85
2022-08-25T16:03:06.844Z,4.15
2022-08-25T16:05:36.787Z,3.47
2022-08-25T16:08:05.342Z,3.97
2022-08-25T16:10:38.428Z,3.30
2022-08-25T16:13:08.844Z,3.42
2022-08-25T16:15:36.853Z,4.47
2022-08-25T16:18:05.959Z,3.15
2022-08-25T16:20:37.182Z,5.18
2022-08-25T16:23:05.577Z,4.03
2022-08-25T16:25:33.610Z,3.97
2022-08-25T16:28:04.507Z,3.47
2022-08-25T16:30:33.551Z,3.60
2022-08-25T16:33:02.825Z,3.65
2022-08-25T16:35:30.642Z,3.85
2022-08-25T16:37:58.401Z,3.92
2022-08-25T16:40:27.410Z,3.70
2022-08-25T16:42:55.306Z,7.15
2022-08-25T16:45:23.146Z,2.78
2022-08-25T16:47:52.258Z,3.33
2022-08-25T16:50:20.226Z,3.55
2022-08-25T16:53:08.068Z,4.40
2022-08-25T16:55:39.399Z,3.22
2022-08-25T16:58:07.947Z,3.30
2022-08-25T17:00:38.781Z,4.72
2022-08-25T17:03:08.827Z,3.75
2022-08-25T17:05:43.007Z,4.40
2022-08-25T17:08:29.458Z,4.47
2022-08-25T17:11:06.831Z,3.10
2022-08-25T17:13:35.429Z,4.50
2022-08-25T17:16:03.419Z,4.10
2022-08-25T17:18:32.841Z,3.83
2022-08-25T17:21:03.922Z,3.22
2022-08-25T17:23:32.449Z,2.75
2022-08-25T17:26:02.811Z,2.50
2022-08-25T17:28:32.851Z,4.40
2022-08-25T17:31:01.264Z,4.05
2022-08-25T17:33:29.247Z,3.72
2022-08-25T17:35:58.767Z,3.83
2022-08-25T17:38:28.444Z,3.28
2022-08-25T17:40:58.975Z,4.32
2022-08-25T17:43:28.564Z,4.47
2022-08-25T17:45:57.801Z,3.45
2022-08-25T17:48:26.435Z,3.17
2022-08-25T17:50:54.799Z,2.97
2022-08-25T17:53:23.841Z,3.30
2022-08-25T17:56:00.274Z,2.80
2022-08-25T17:58:29.562Z,3.22
2022-08-25T18:00:57.304Z,3.72
2022-08-25T18:03:26.463Z,2.50
2022-08-25T18:05:55.315Z,3.80
2022-08-25T18:08:26.076Z,3.22
2022-08-25T18:11:00.062Z,6.82
2022-08-25T18:13:28.122Z,4.20
2022-08-25T18:15:56.142Z,4.07
2022-08-25T18:18:24.124Z,3.53
2022-08-25T18:20:52.295Z,3.83
2022-08-25T18:23:20.943Z,4.20
2022-08-25T18:25:50.729Z,5.45
2022-08-25T18:28:18.617Z,3.83
2022-08-25T18:30:47.177Z,5.10
2022-08-25T18:33:15.471Z,7.18
2022-08-25T18:35:43.575Z,8.65
2022-08-25T18:38:28.927Z,4.55
2022-08-25T18:40:59.496Z,5.63
2022-08-25T18:43:28.904Z,6.40
2022-08-25T18:46:00.327Z,6.57
2022-08-25T18:48:28.498Z,5.53
2022-08-25T18:50:56.691Z,9.23
2022-08-25T18:53:30.464Z,7.97
2022-08-25T18:56:07.475Z,6.07
2022-08-25T18:58:35.993Z,4.88
2022-08-25T19:01:04.279Z,7.22
2022-08-25T19:03:32.571Z,10.00
2022-08-25T19:06:00.678Z,6.28
2022-08-25T19:08:28.527Z,7.35
2022-08-25T19:10:56.329Z,9.75
2022-08-25T19:13:25.690Z,6.00
2022-08-25T19:15:53.457Z,8.13
2022-08-25T19:18:26.156Z,7.93
2022-08-25T19:20:58.434Z,9.80
2022-08-25T19:23:26.859Z,7.30
2022-08-25T19:25:54.588Z,8.10
2022-08-25T19:28:26.046Z,7.07
2022-08-25T19:30:54.133Z,7.70
2022-08-25T19:33:42.835Z,13.07
2022-08-25T19:36:09.924Z,8.95
2022-08-25T19:38:39.351Z,5.00
2022-08-25T19:41:10.645Z,5.88
2022-08-25T19:43:50.626Z,7.53
2022-08-25T19:46:25.971Z,10.05
2022-08-25T19:49:07.225Z,8.35
2022-08-25T19:51:36.806Z,7.40
2022-08-25T19:54:05.097Z,9.35
2022-08-25T19:56:35.102Z,11.60
2022-08-25T19:59:05.623Z,10.82
2022-08-25T20:01:33.350Z,14.55
2022-08-25T20:04:03.526Z,10.15
2022-08-25T20:06:32.123Z,12.20
2022-08-25T20:09:00.702Z,12.00
2022-08-25T20:11:30.000Z,10.18
2022-08-25T20:14:03.024Z,16.92
2022-08-25T20:16:32.868Z,13.75
2022-08-25T20:19:01.121Z,11.73
2022-08-25T20:21:33.590Z,18.83
2022-08-25T20:24:37.641Z,16.67
2022-08-25T20:27:05.630Z,17.00
2022-08-25T20:29:33.313Z,16.42
2022-08-25T20:32:02.379Z,17.55
2022-08-25T20:34:31.728Z,17.30
2022-08-25T20:37:00.350Z,18.17
2022-08-25T20:39:28.070Z,15.98
2022-08-25T20:41:56.594Z,22.10
2022-08-25T20:44:24.559Z,19.80
2022-08-25T20:46:52.297Z,13.50
2022-08-25T20:49:26.716Z,13.75
2022-08-25T20:51:54.403Z,11.93
2022-08-25T20:54:24.966Z,14.43
2022-08-25T20:56:54.214Z,18.45
2022-08-25T20:59:22.302Z,16.45
2022-08-25T21:01:50.762Z,17.70
2022-08-25T21:04:21.864Z,14.35
2022-08-25T21:06:51.917Z,15.38
2022-08-25T21:09:22.829Z,17.88
2022-08-25T21:11:54.267Z,13.88
2022-08-25T21:14:22.770Z,14.60
2022-08-25T21:16:52.478Z,17.05
2022-08-25T21:19:26.723Z,16.10
2022-08-25T21:22:00.278Z,12.35
2022-08-25T21:24:29.356Z,9.68
2022-08-25T21:26:59.649Z,12.45
2022-08-25T21:29:29.957Z,11.45
2022-08-25T21:31:59.307Z,14.93
2022-08-25T21:34:28.755Z,16.70
2022-08-25T21:36:57.994Z,14.63
2022-08-25T21:39:29.657Z,16.08
2022-08-25T21:42:00.491Z,15.10
2022-08-25T21:44:29.389Z,10.07
2022-08-25T21:46:57.263Z,16.73
2022-08-25T21:49:25.562Z,13.98
2022-08-25T21:52:01.054Z,16.15
2022-08-25T21:54:32.001Z,12.80
2022-08-25T21:57:02.116Z,11.25
2022-08-25T21:59:32.047Z,12.07
2022-08-25T22:02:02.671Z,14.02
2022-08-25T22:04:31.183Z,13.25
2022-08-25T22:06:59.311Z,12.75
2022-08-25T22:09:28.214Z,14.27
2022-08-25T22:11:58.578Z,11.38
2022-08-25T22:14:28.215Z,20.30
2022-08-25T22:16:56.448Z,11.52
2022-08-25T22:19:24.869Z,12.57
2022-08-25T22:21:53.800Z,13.32
2022-08-25T22:24:21.637Z,12.75
2022-08-25T22:26:49.432Z,18.67
2022-08-25T22:29:25.769Z,17.55
2022-08-25T22:32:00.145Z,14.80
2022-08-25T22:34:32.311Z,9.82
2022-08-25T22:37:00.778Z,12.23
2022-08-25T22:39:28.813Z,11.68
2022-08-25T22:41:56.786Z,11.52
2022-08-25T22:44:26.167Z,10.63
2022-08-25T22:46:54.392Z,14.52
2022-08-25T22:49:22.202Z,13.93
2022-08-25T22:51:49.958Z,13.02
2022-08-25T22:54:19.050Z,15.73
2022-08-25T22:56:46.710Z,11.38
2022-08-25T22:59:15.489Z,13.38
2022-08-25T23:01:45.985Z,11.52
2022-08-25T23:04:14.700Z,9.95
2022-08-25T23:06:42.946Z,8.65
2022-08-25T23:09:11.218Z,9.80
2022-08-25T23:11:39.391Z,10.40
2022-08-25T23:14:10.853Z,12.85
2022-08-25T23:16:38.970Z,11.02
2022-08-25T23:19:08.533Z,13.90
2022-08-25T23:21:53.601Z,11.32
2022-08-25T23:24:29.565Z,11.07
2022-08-25T23:26:58.805Z,8.18
2022-08-25T23:29:27.675Z,15.02
2022-08-25T23:31:56.038Z,5.60
2022-08-25T23:34:26.370Z,8.68
2022-08-25T23:36:55.786Z,8.60
2022-08-25T23:39:23.640Z,7.78
2022-08-25T23:41:52.665Z,7.75
2022-08-25T23:44:21.989Z,8.65
2022-08-25T23:46:49.832Z,8.85
2022-08-25T23:49:19.856Z,6.07
2022-08-25T23:51:52.660Z,9.80
2022-08-25T23:54:21.970Z,8.43
2022-08-25T23:56:58.931Z,7.95
2022-08-25T23:59:26.803Z,9.02
